createdAt,value
2023-05-12T00:00:44.111Z,4.06
2023-05-12T00:01:44.129Z,4.06
2023-05-12T00:02:44.283Z,4.07
2023-05-12T00:03:44.490Z,4.05
2023-05-12T00:04:44.148Z,4.02
2023-05-12T00:05:44.143Z,4.13
2023-05-12T00:06:44.142Z,4.09
2023-05-12T00:07:44.133Z,4.28
2023-05-12T00:08:44.133Z,4.13
2023-05-12T00:09:44.148Z,4.09
2023-05-12T00:10:44.169Z,3.99
2023-05-12T00:11:44.149Z,4.09
2023-05-12T00:12:44.166Z,4.04
2023-05-12T00:13:44.235Z,4.17
2023-05-12T00:14:44.189Z,4.21
2023-05-12T00:15:44.222Z,4.12
2023-05-12T00:16:44.263Z,4.20
2023-05-12T00:17:44.211Z,4.00
2023-05-12T00:18:44.256Z,3.96
2023-05-12T00:19:44.209Z,4.04
2023-05-12T00:20:44.226Z,4.00
2023-05-12T00:21:44.251Z,4.01
2023-05-12T00:22:44.279Z,4.05
2023-05-12T00:23:44.260Z,3.95
2023-05-12T00:24:44.280Z,3.91
2023-05-12T00:25:44.301Z,4.05
2023-05-12T00:26:44.297Z,3.99
2023-05-12T00:27:44.315Z,4.07
2023-05-12T00:28:44.338Z,3.93
2023-05-12T00:29:44.334Z,3.85
2023-05-12T00:30:44.346Z,3.91
2023-05-12T00:31:44.421Z,3.87
2023-05-12T00:32:44.451Z,3.80
2023-05-12T00:33:44.373Z,3.82
2023-05-12T00:34:44.384Z,3.91
2023-05-12T00:35:44.396Z,3.85
2023-05-12T00:36:44.404Z,3.87
2023-05-12T00:37:44.440Z,3.92
2023-05-12T00:38:44.419Z,3.96
2023-05-12T00:39:44.447Z,3.91
2023-05-12T00:40:44.459Z,3.94
2023-05-12T00:41:44.460Z,3.95
2023-05-12T00:42:44.483Z,4.02
2023-05-12T00:43:44.470Z,4.03
2023-05-12T00:44:44.489Z,3.96
2023-05-12T00:45:44.569Z,4.01
2023-05-12T00:46:44.506Z,4.06
2023-05-12T00:47:44.533Z,3.97
2023-05-12T00:48:44.541Z,4.01
2023-05-12T00:49:44.544Z,4.06
2023-05-12T00:50:44.551Z,4.06
2023-05-12T00:51:44.569Z,4.00
2023-05-12T00:52:44.576Z,4.04
2023-05-12T00:53:50.037Z,4.05
2023-05-12T00:54:45.587Z,4.05
2023-05-12T00:55:44.566Z,3.98
2023-05-12T00:56:44.588Z,4.03
2023-05-12T00:57:44.599Z,4.07
2023-05-12T00:58:44.540Z,4.11
2023-05-12T00:59:44.538Z,4.07
2023-05-12T01:00:44.529Z,4.04
2023-05-12T01:01:44.547Z,3.96
2023-05-12T01:02:44.584Z,4.01
2023-05-12T01:03:44.500Z,4.03
2023-05-12T01:04:44.498Z,4.04
2023-05-12T01:05:44.485Z,4.10
2023-05-12T01:06:44.472Z,4.09
2023-05-12T01:07:44.471Z,4.07
2023-05-12T01:08:44.469Z,4.08
2023-05-12T01:09:44.474Z,4.02
2023-05-12T01:10:44.473Z,4.02
2023-05-12T01:11:44.491Z,3.99
2023-05-12T01:12:44.464Z,3.92
2023-05-12T01:13:44.428Z,3.97
2023-05-12T01:14:44.434Z,3.97
2023-05-12T01:15:44.430Z,4.14
2023-05-12T01:16:44.456Z,3.98
2023-05-12T01:17:44.560Z,3.95
2023-05-12T01:18:44.447Z,3.98
2023-05-12T01:19:44.393Z,4.04
2023-05-12T01:20:44.379Z,4.01
2023-05-12T01:21:44.437Z,3.98
2023-05-12T01:22:44.372Z,4.00
2023-05-12T01:23:44.362Z,3.97
2023-05-12T01:24:44.366Z,3.91
2023-05-12T01:25:44.352Z,3.89
2023-05-12T01:26:44.354Z,3.83
2023-05-12T01:27:44.337Z,3.91
2023-05-12T01:28:44.342Z,4.00
2023-05-12T01:29:44.314Z,3.95
2023-05-12T01:30:44.356Z,3.83
2023-05-12T01:31:44.393Z,3.93
2023-05-12T01:32:44.367Z,4.02
2023-05-12T01:33:44.350Z,3.91
2023-05-12T01:34:44.405Z,3.97
2023-05-12T01:35:44.424Z,3.92
2023-05-12T01:36:44.397Z,3.92
2023-05-12T01:37:44.390Z,3.94
2023-05-12T01:38:44.402Z,3.87
2023-05-12T01:39:44.395Z,4.04
2023-05-12T01:40:44.416Z,4.08
2023-05-12T01:41:44.417Z,4.09
2023-05-12T01:42:44.422Z,4.10
2023-05-12T01:43:44.442Z,4.02
2023-05-12T01:44:44.430Z,3.94
2023-05-12T01:45:44.452Z,4.00
2023-05-12T01:46:44.468Z,3.95
2023-05-12T01:47:44.477Z,4.13
2023-05-12T01:48:44.491Z,4.02
2023-05-12T01:49:44.485Z,4.02
2023-05-12T01:50:44.497Z,4.00
2023-05-12T01:51:44.515Z,4.07
2023-05-12T01:52:44.527Z,3.96
2023-05-12T01:53:44.539Z,4.07
2023-05-12T01:54:44.535Z,4.08
2023-05-12T01:55:44.546Z,4.05
2023-05-12T01:56:44.557Z,4.06
2023-05-12T01:57:44.580Z,4.02
2023-05-12T01:58:44.617Z,3.98
2023-05-12T01:59:44.570Z,3.95
2023-05-12T02:00:44.580Z,4.08
2023-05-12T02:01:44.684Z,4.05
2023-05-12T02:02:44.652Z,4.04
2023-05-12T02:03:44.672Z,4.03
2023-05-12T02:04:44.639Z,3.98
2023-05-12T02:05:44.645Z,4.05
2023-05-12T02:06:44.664Z,4.02
2023-05-12T02:07:44.665Z,4.04
2023-05-12T02:08:44.704Z,4.02
2023-05-12T02:09:44.700Z,4.04
2023-05-12T02:10:44.721Z,4.03
2023-05-12T02:11:44.709Z,4.07
2023-05-12T02:12:44.733Z,3.98
2023-05-12T02:13:44.737Z,3.88
2023-05-12T02:14:44.747Z,3.84
2023-05-12T02:15:44.772Z,3.78
2023-05-12T02:16:44.792Z,3.75
2023-05-12T02:17:44.844Z,3.63
2023-05-12T02:18:44.828Z,3.64
2023-05-12T02:19:44.806Z,3.60
2023-05-12T02:20:44.828Z,3.52
2023-05-12T02:21:44.864Z,3.46
2023-05-12T02:22:44.865Z,3.50
2023-05-12T02:23:44.869Z,3.49
2023-05-12T02:24:44.856Z,3.52
2023-05-12T02:25:44.877Z,3.46
2023-05-12T02:26:44.907Z,3.46
2023-05-12T02:27:44.921Z,3.36
2023-05-12T02:28:44.933Z,3.31
2023-05-12T02:29:44.929Z,3.25
2023-05-12T02:30:44.951Z,3.32
2023-05-12T02:31:44.992Z,3.19
2023-05-12T02:32:45.003Z,3.11
2023-05-12T02:33:44.982Z,3.18
2023-05-12T02:34:44.979Z,3.05
2023-05-12T02:35:44.990Z,3.13
2023-05-12T02:36:45.024Z,3.06
2023-05-12T02:37:45.009Z,2.99
2023-05-12T02:38:45.046Z,3.06
2023-05-12T02:39:45.052Z,3.15
2023-05-12T02:40:45.058Z,2.98
2023-05-12T02:41:45.094Z,2.94
2023-05-12T02:42:45.098Z,2.98
2023-05-12T02:43:45.119Z,2.90
2023-05-12T02:44:45.127Z,2.80
2023-05-12T02:45:45.200Z,2.86
2023-05-12T02:46:45.137Z,2.88
2023-05-12T02:47:45.238Z,2.75
2023-05-12T02:48:45.165Z,2.81
2023-05-12T02:49:45.176Z,2.77
2023-05-12T02:50:45.183Z,2.70
2023-05-12T02:51:45.195Z,2.70
2023-05-12T02:52:45.241Z,2.68
2023-05-12T02:53:45.246Z,2.66
2023-05-12T02:54:45.255Z,2.66
2023-05-12T02:55:45.271Z,2.58
2023-05-12T02:56:45.276Z,2.63
2023-05-12T02:57:45.298Z,2.57
2023-05-12T02:58:45.446Z,2.55
2023-05-12T02:59:45.332Z,2.56
2023-05-12T03:00:45.409Z,2.47
2023-05-12T03:01:45.403Z,2.49
2023-05-12T03:02:45.401Z,2.49
2023-05-12T03:03:45.633Z,2.38
2023-05-12T03:04:45.434Z,2.39
2023-05-12T03:05:45.424Z,2.41
2023-05-12T03:06:45.440Z,2.39
2023-05-12T03:07:45.444Z,2.43
2023-05-12T03:08:45.464Z,2.31
2023-05-12T03:09:45.486Z,2.30
2023-05-12T03:10:45.487Z,2.38
2023-05-12T03:11:45.524Z,2.33
2023-05-12T03:12:45.545Z,2.30
2023-05-12T03:13:45.553Z,2.29
2023-05-12T03:14:45.561Z,2.27
2023-05-12T03:15:45.556Z,2.31
2023-05-12T03:16:45.632Z,2.27
2023-05-12T03:17:45.624Z,2.29
2023-05-12T03:18:45.643Z,2.29
2023-05-12T03:19:45.619Z,2.27
2023-05-12T03:20:45.641Z,2.32
2023-05-12T03:21:45.647Z,2.28
2023-05-12T03:22:45.661Z,2.26
2023-05-12T03:23:45.674Z,2.25
2023-05-12T03:24:45.693Z,2.31
2023-05-12T03:25:45.720Z,2.27
2023-05-12T03:26:45.752Z,2.24
2023-05-12T03:27:45.767Z,2.20
2023-05-12T03:28:45.793Z,2.23
2023-05-12T03:29:45.804Z,2.22
2023-05-12T03:30:45.871Z,2.18
2023-05-12T03:31:45.876Z,2.22
2023-05-12T03:32:45.893Z,2.23
2023-05-12T03:33:45.896Z,2.13
2023-05-12T03:34:45.926Z,2.20
2023-05-12T03:35:45.957Z,2.12
2023-05-12T03:36:45.970Z,2.16
2023-05-12T03:37:45.984Z,2.12
2023-05-12T03:38:45.975Z,2.15
2023-05-12T03:39:46.001Z,2.17
2023-05-12T03:40:46.026Z,2.16
2023-05-12T03:41:46.037Z,2.17
2023-05-12T03:42:46.071Z,2.07
2023-05-12T03:43:46.061Z,2.12
2023-05-12T03:44:46.094Z,2.17
2023-05-12T03:45:46.101Z,2.16
2023-05-12T03:46:46.167Z,2.17
2023-05-12T03:47:46.231Z,2.16
2023-05-12T03:48:46.146Z,2.13
2023-05-12T03:49:46.148Z,2.15
2023-05-12T03:50:46.157Z,2.12
2023-05-12T03:51:46.165Z,2.17
2023-05-12T03:52:46.189Z,2.12
2023-05-12T03:53:46.280Z,2.19
2023-05-12T03:54:46.234Z,2.20
2023-05-12T03:55:46.231Z,2.19
2023-05-12T03:56:46.264Z,2.17
2023-05-12T03:57:46.280Z,2.11
2023-05-12T03:58:46.278Z,2.15
2023-05-12T03:59:46.291Z,2.13
2023-05-12T04:00:46.306Z,2.16
2023-05-12T04:01:46.401Z,2.15
2023-05-12T04:02:46.494Z,2.15
2023-05-12T04:03:46.454Z,2.19
2023-05-12T04:04:46.370Z,2.18
2023-05-12T04:05:46.408Z,2.16
2023-05-12T04:06:46.439Z,2.15
2023-05-12T04:07:46.432Z,2.16
2023-05-12T04:08:46.457Z,2.15
2023-05-12T04:09:46.453Z,2.10
2023-05-12T04:10:46.497Z,2.14
2023-05-12T04:11:46.517Z,2.19
2023-05-12T04:12:46.523Z,2.15
2023-05-12T04:13:46.554Z,2.20
2023-05-12T04:14:46.544Z,2.18
2023-05-12T04:15:46.576Z,2.15
2023-05-12T04:16:46.637Z,2.19
2023-05-12T04:17:46.642Z,2.17
2023-05-12T04:18:46.709Z,2.21
2023-05-12T04:19:46.651Z,2.20
2023-05-12T04:20:46.655Z,2.23
2023-05-12T04:21:46.720Z,2.17
2023-05-12T04:22:46.691Z,2.23
2023-05-12T04:23:46.742Z,2.22
2023-05-12T04:24:46.715Z,2.19
2023-05-12T04:25:46.713Z,2.22
2023-05-12T04:26:46.742Z,2.31
2023-05-12T04:27:46.749Z,2.29
2023-05-12T04:28:46.749Z,2.29
2023-05-12T04:29:46.826Z,2.31
2023-05-12T04:30:46.788Z,2.34
2023-05-12T04:31:46.869Z,2.34
2023-05-12T04:32:46.938Z,2.32
2023-05-12T04:33:48.335Z,2.37
2023-05-12T04:34:46.939Z,2.38
2023-05-12T04:35:46.878Z,2.42
2023-05-12T04:36:46.893Z,2.40
2023-05-12T04:37:46.899Z,2.41
2023-05-12T04:38:46.914Z,2.43
2023-05-12T04:39:46.955Z,2.40
2023-05-12T04:40:46.956Z,2.40
2023-05-12T04:41:46.966Z,2.35
2023-05-12T04:42:46.969Z,2.43
2023-05-12T04:44:46.971Z,2.44
2023-05-12T04:45:46.996Z,2.43
2023-05-12T04:46:46.976Z,2.47
2023-05-12T04:47:46.999Z,2.44
2023-05-12T04:48:46.971Z,2.50
2023-05-12T04:49:46.965Z,2.49
2023-05-12T04:50:46.963Z,2.57
2023-05-12T04:51:46.950Z,2.53
2023-05-12T04:52:46.952Z,2.54
2023-05-12T04:53:46.919Z,2.63
2023-05-12T04:54:46.920Z,2.57
2023-05-12T04:55:46.919Z,2.57
2023-05-12T04:56:46.942Z,2.56
2023-05-12T04:57:46.914Z,2.63
2023-05-12T04:58:46.892Z,2.66
2023-05-12T04:59:46.901Z,2.67
2023-05-12T05:00:46.901Z,2.63
2023-05-12T05:01:47.117Z,2.67
2023-05-12T05:02:46.950Z,2.71
2023-05-12T05:03:46.956Z,2.70
2023-05-12T05:04:46.879Z,2.65
2023-05-12T05:05:46.866Z,2.61
2023-05-12T05:06:46.864Z,2.62
2023-05-12T05:07:46.858Z,2.65
2023-05-12T05:08:46.834Z,2.64
2023-05-12T05:09:46.822Z,2.64
2023-05-12T05:10:46.825Z,2.67
2023-05-12T05:11:46.822Z,2.64
2023-05-12T05:12:46.841Z,2.59
2023-05-12T05:13:46.798Z,2.62
2023-05-12T05:14:46.810Z,2.61
2023-05-12T05:15:46.867Z,2.64
2023-05-12T05:16:46.815Z,2.64
2023-05-12T05:17:46.811Z,2.67
2023-05-12T05:18:47.007Z,2.66
2023-05-12T05:19:57.205Z,2.61
2023-05-12T05:20:56.080Z,2.62
2023-05-12T05:21:47.751Z,2.62
2023-05-12T05:22:46.726Z,2.63
2023-05-12T05:23:46.716Z,2.66
2023-05-12T05:24:46.721Z,2.66
2023-05-12T05:25:46.697Z,2.66
2023-05-12T05:26:46.694Z,2.60
2023-05-12T05:27:47.008Z,2.55
2023-05-12T05:28:46.693Z,2.66
2023-05-12T05:29:46.686Z,2.58
2023-05-12T05:30:46.664Z,2.65
2023-05-12T05:31:46.739Z,2.37
2023-05-12T05:32:47.044Z,2.18
2023-05-12T05:33:46.666Z,2.03
2023-05-12T05:34:46.641Z,1.90
2023-05-12T05:35:46.685Z,1.74
2023-05-12T05:36:46.630Z,1.72
2023-05-12T05:37:46.648Z,1.65
2023-05-12T05:38:46.622Z,1.56
2023-05-12T05:39:46.600Z,1.35
2023-05-12T05:40:53.615Z,1.38
2023-05-12T05:41:47.611Z,1.25
2023-05-12T05:42:46.580Z,1.18
2023-05-12T05:43:46.612Z,1.14
2023-05-12T05:44:46.587Z,1.15
2023-05-12T05:45:46.559Z,1.33
2023-05-12T05:46:46.599Z,1.48
2023-05-12T05:47:47.038Z,1.65
2023-05-12T05:48:46.542Z,1.89
2023-05-12T05:49:46.568Z,2.02
2023-05-12T05:50:46.542Z,2.23
2023-05-12T05:51:46.536Z,2.35
2023-05-12T05:52:46.534Z,2.54
2023-05-12T05:53:46.515Z,2.87
2023-05-12T05:54:46.498Z,3.00
2023-05-12T05:55:46.483Z,3.17
2023-05-12T05:56:46.561Z,3.34
2023-05-12T05:57:46.595Z,3.61
2023-05-12T05:58:46.608Z,3.91
2023-05-12T05:59:46.661Z,4.15
2023-05-12T06:00:46.707Z,4.38
2023-05-12T06:01:46.728Z,4.72
2023-05-12T06:02:47.055Z,5.05
2023-05-12T06:03:46.868Z,5.47
2023-05-12T06:04:46.761Z,6.04
2023-05-12T06:05:46.797Z,6.47
2023-05-12T06:06:46.782Z,6.79
2023-05-12T06:07:46.784Z,6.77
2023-05-12T06:08:46.801Z,7.34
2023-05-12T06:09:46.801Z,7.22
2023-05-12T06:10:46.793Z,7.70
2023-05-12T06:11:46.786Z,7.97
2023-05-12T06:12:46.811Z,8.06
2023-05-12T06:13:46.805Z,8.25
2023-05-12T06:14:46.778Z,8.50
2023-05-12T06:15:46.792Z,8.44
2023-05-12T06:16:46.954Z,8.97
2023-05-12T06:17:46.831Z,9.18
2023-05-12T06:18:46.848Z,8.93
2023-05-12T06:19:46.807Z,9.27
2023-05-12T06:20:46.792Z,9.40
2023-05-12T06:21:46.814Z,9.69
2023-05-12T06:22:46.836Z,9.44
2023-05-12T06:23:46.879Z,9.59
2023-05-12T06:24:46.868Z,8.27
2023-05-12T06:25:46.883Z,7.75
2023-05-12T06:26:46.907Z,7.94
2023-05-12T06:27:46.910Z,8.39
2023-05-12T06:28:46.937Z,8.36
2023-05-12T06:29:46.962Z,8.75
2023-05-12T06:30:46.997Z,9.11
2023-05-12T06:31:47.127Z,9.07
2023-05-12T06:32:47.686Z,8.66
2023-05-12T06:33:47.213Z,7.92
2023-05-12T06:34:47.285Z,6.84
2023-05-12T06:35:47.277Z,6.61
2023-05-12T06:36:47.312Z,6.06
2023-05-12T06:37:47.376Z,5.41
2023-05-12T06:38:47.407Z,5.12
2023-05-12T06:39:47.456Z,5.49
2023-05-12T06:40:47.475Z,5.65
2023-05-12T06:41:47.523Z,6.40
2023-05-12T06:42:47.591Z,7.21
2023-05-12T06:43:47.647Z,7.90
2023-05-12T06:44:47.800Z,8.77
2023-05-12T06:45:47.764Z,9.65
2023-05-12T06:46:47.900Z,10.28
2023-05-12T06:47:48.088Z,10.50
2023-05-12T06:48:47.922Z,10.61
2023-05-12T06:49:47.947Z,10.66
2023-05-12T06:50:48.014Z,10.50
2023-05-12T06:51:48.054Z,10.95
2023-05-12T06:52:48.093Z,10.87
2023-05-12T06:53:48.135Z,10.70
2023-05-12T06:54:48.152Z,8.70
2023-05-12T06:55:48.188Z,6.14
2023-05-12T06:56:48.252Z,5.11
2023-05-12T06:57:48.524Z,4.66
2023-05-12T06:58:48.328Z,4.58
2023-05-12T06:59:48.375Z,3.87
2023-05-12T07:00:48.405Z,3.49
2023-05-12T07:01:48.491Z,3.36
2023-05-12T07:02:48.525Z,3.49
2023-05-12T07:03:48.488Z,3.24
2023-05-12T07:04:48.526Z,2.83
2023-05-12T07:05:48.546Z,2.86
2023-05-12T07:06:48.570Z,2.95
2023-05-12T07:07:48.584Z,3.16
2023-05-12T07:08:48.588Z,3.02
2023-05-12T07:09:48.611Z,2.78
2023-05-12T07:10:48.652Z,3.06
2023-05-12T07:11:48.656Z,3.29
2023-05-12T07:12:48.708Z,3.34
2023-05-12T07:13:48.700Z,3.51
2023-05-12T07:14:48.740Z,3.50
2023-05-12T07:15:48.753Z,3.79
2023-05-12T07:16:48.767Z,3.86
2023-05-12T07:17:50.157Z,4.05
2023-05-12T07:18:48.837Z,3.88
2023-05-12T07:19:48.867Z,3.12
2023-05-12T07:20:48.877Z,3.55
2023-05-12T07:21:48.892Z,3.49
2023-05-12T07:22:48.897Z,3.91
2023-05-12T07:23:48.934Z,3.49
2023-05-12T07:24:48.964Z,3.19
2023-05-12T07:25:48.958Z,2.59
2023-05-12T07:26:48.977Z,1.88
2023-05-12T07:27:49.028Z,1.51
2023-05-12T07:28:49.059Z,1.33
2023-05-12T07:29:49.100Z,1.24
2023-05-12T07:30:49.158Z,1.04
2023-05-12T07:31:49.283Z,0.74
2023-05-12T07:32:49.290Z,0.65
2023-05-12T07:33:49.542Z,0.66
2023-05-12T07:34:49.275Z,0.76
2023-05-12T07:35:49.293Z,0.84
2023-05-12T07:36:49.333Z,0.93
2023-05-12T07:37:49.351Z,1.07
2023-05-12T07:38:49.545Z,1.26
2023-05-12T07:39:49.460Z,1.49
2023-05-12T07:40:49.537Z,1.80
2023-05-12T07:41:49.573Z,2.18
2023-05-12T07:42:50.057Z,2.44
2023-05-12T07:43:49.678Z,2.61
2023-05-12T07:44:49.731Z,2.73
2023-05-12T07:45:49.740Z,3.11
2023-05-12T07:46:49.887Z,3.27
2023-05-12T07:47:49.835Z,3.43
2023-05-12T07:48:49.863Z,3.68
2023-05-12T07:49:49.865Z,3.61
2023-05-12T07:50:49.904Z,3.60
2023-05-12T07:51:49.936Z,3.71
2023-05-12T07:52:50.092Z,2.99
2023-05-12T07:53:49.979Z,2.19
2023-05-12T07:54:50.007Z,2.40
2023-05-12T07:55:50.024Z,2.12
2023-05-12T07:56:50.055Z,1.81
2023-05-12T07:57:50.585Z,2.18
2023-05-12T07:58:50.579Z,2.34
2023-05-12T07:59:50.151Z,2.54
2023-05-12T08:00:50.148Z,2.38
2023-05-12T08:01:50.193Z,2.45
2023-05-12T08:02:50.674Z,2.04
2023-05-12T08:03:50.688Z,1.68
2023-05-12T08:04:50.264Z,1.93
2023-05-12T08:05:50.304Z,2.13
2023-05-12T08:06:50.335Z,1.73
2023-05-12T08:07:50.349Z,1.44
2023-05-12T08:08:50.424Z,1.21
2023-05-12T08:09:50.418Z,1.30
2023-05-12T08:10:50.439Z,1.18
2023-05-12T08:11:51.625Z,1.26
2023-05-12T08:12:50.496Z,1.60
2023-05-12T08:13:50.579Z,1.47
2023-05-12T08:14:50.879Z,1.40
2023-05-12T08:15:50.596Z,1.59
2023-05-12T08:16:50.695Z,1.53
2023-05-12T08:17:50.701Z,1.51
2023-05-12T08:18:50.696Z,1.66
2023-05-12T08:19:50.713Z,1.70
2023-05-12T08:20:50.732Z,1.54
2023-05-12T08:21:50.771Z,1.26
2023-05-12T08:22:50.813Z,0.88
2023-05-12T08:23:51.078Z,0.68
2023-05-12T08:24:50.899Z,0.67
2023-05-12T08:25:50.941Z,0.81
2023-05-12T08:26:50.989Z,0.97
2023-05-12T08:27:51.045Z,1.16
2023-05-12T08:28:51.127Z,1.36
2023-05-12T08:29:51.121Z,1.83
2023-05-12T08:30:51.173Z,2.42
2023-05-12T08:31:51.196Z,2.80
2023-05-12T08:32:51.227Z,3.41
2023-05-12T08:33:59.420Z,3.68
2023-05-12T08:34:52.361Z,3.70
2023-05-12T08:35:51.221Z,3.69
2023-05-12T08:36:51.197Z,3.71
2023-05-12T08:37:51.239Z,4.09
2023-05-12T08:38:51.328Z,4.82
2023-05-12T08:39:51.334Z,4.67
2023-05-12T08:40:51.332Z,5.09
2023-05-12T08:41:51.360Z,5.42
2023-05-12T08:42:51.386Z,5.76
2023-05-12T08:43:51.574Z,6.13
2023-05-12T08:44:51.396Z,6.24
2023-05-12T08:45:51.393Z,6.41
2023-05-12T08:46:51.468Z,6.65
2023-05-12T08:47:51.495Z,6.60
2023-05-12T08:48:51.409Z,6.68
2023-05-12T08:49:52.554Z,6.91
2023-05-12T08:50:51.425Z,6.77
2023-05-12T08:51:57.726Z,6.82
2023-05-12T08:52:52.395Z,6.83
2023-05-12T08:53:51.395Z,6.87
2023-05-12T08:54:56.101Z,6.77
2023-05-12T08:57:08.992Z,6.83
2023-05-12T08:57:51.407Z,6.85
2023-05-12T08:58:51.592Z,6.92
2023-05-12T08:59:51.361Z,7.14
2023-05-12T09:00:51.348Z,7.54
2023-05-12T09:01:51.423Z,7.97
2023-05-12T09:02:53.848Z,7.53
2023-05-12T09:03:51.604Z,7.55
2023-05-12T09:04:51.460Z,7.54
2023-05-12T09:05:51.331Z,7.74
2023-05-12T09:06:52.558Z,8.06
2023-05-12T09:07:51.294Z,7.57
2023-05-12T09:08:51.589Z,7.72
2023-05-12T09:09:51.268Z,7.99
2023-05-12T09:10:51.268Z,8.45
2023-05-12T09:11:51.279Z,8.24
2023-05-12T09:12:51.249Z,8.44
2023-05-12T09:13:51.604Z,8.30
2023-05-12T09:14:51.237Z,7.86
2023-05-12T09:15:51.245Z,8.44
2023-05-12T09:16:51.296Z,8.57
2023-05-12T09:17:51.243Z,8.11
2023-05-12T09:18:51.233Z,8.27
2023-05-12T09:19:51.213Z,8.66
2023-05-12T09:20:51.218Z,8.70
2023-05-12T09:21:51.186Z,8.94
2023-05-12T09:22:51.409Z,9.24
2023-05-12T09:23:51.583Z,8.90
2023-05-12T09:24:51.175Z,8.62
2023-05-12T09:25:51.180Z,8.78
2023-05-12T09:26:51.182Z,8.38
2023-05-12T09:27:51.154Z,8.58
2023-05-12T09:28:51.158Z,8.34
2023-05-12T09:29:58.466Z,8.52
2023-05-12T09:30:52.130Z,6.05
2023-05-12T09:31:51.171Z,4.69
2023-05-12T09:32:51.124Z,5.28
2023-05-12T09:33:51.634Z,5.86
2023-05-12T09:34:51.106Z,6.07
2023-05-12T09:35:51.102Z,6.28
2023-05-12T09:36:51.120Z,6.54
2023-05-12T09:37:51.199Z,6.45
2023-05-12T09:38:51.151Z,6.81
2023-05-12T09:39:51.084Z,6.74
2023-05-12T09:40:51.077Z,6.80
2023-05-12T09:41:51.056Z,6.14
2023-05-12T09:42:51.095Z,4.40
2023-05-12T09:43:51.598Z,3.43
2023-05-12T09:44:51.207Z,2.97
2023-05-12T09:45:51.306Z,2.27
2023-05-12T09:46:51.390Z,1.94
2023-05-12T09:47:51.453Z,1.72
2023-05-12T09:48:51.614Z,1.54
2023-05-12T09:49:51.497Z,1.43
2023-05-12T09:50:51.565Z,1.38
2023-05-12T09:51:51.615Z,1.28
2023-05-12T09:52:51.687Z,1.22
2023-05-12T09:53:52.094Z,1.09
2023-05-12T09:54:51.789Z,1.15
2023-05-12T09:55:51.881Z,1.21
2023-05-12T09:56:51.899Z,1.62
2023-05-12T09:57:51.969Z,2.11
2023-05-12T09:58:52.022Z,2.46
2023-05-12T09:59:52.088Z,2.63
2023-05-12T10:01:13.554Z,2.78
2023-05-12T10:01:53.163Z,2.79
2023-05-12T10:02:52.160Z,2.78
2023-05-12T10:03:52.109Z,2.78
2023-05-12T10:04:52.145Z,2.81
2023-05-12T10:05:52.124Z,2.75
2023-05-12T10:06:52.092Z,2.92
2023-05-12T10:07:52.077Z,2.92
2023-05-12T10:08:52.115Z,2.86
2023-05-12T10:09:52.083Z,2.88
2023-05-12T10:10:52.123Z,2.85
2023-05-12T10:11:53.697Z,2.91
2023-05-12T10:12:52.226Z,2.98
2023-05-12T10:13:52.615Z,3.05
2023-05-12T10:14:52.341Z,3.01
2023-05-12T10:15:52.381Z,3.11
2023-05-12T10:16:52.462Z,3.04
2023-05-12T10:17:53.911Z,3.06
2023-05-12T10:18:52.546Z,3.05
2023-05-12T10:19:52.572Z,3.11
2023-05-12T10:20:52.651Z,3.13
2023-05-12T10:21:52.682Z,3.16
2023-05-12T10:22:52.754Z,3.18
2023-05-12T10:23:53.149Z,3.14
2023-05-12T10:24:52.825Z,3.29
2023-05-12T10:25:53.003Z,3.18
2023-05-12T10:26:52.956Z,3.11
2023-05-12T10:27:52.981Z,3.06
2023-05-12T10:28:53.031Z,3.09
2023-05-12T10:29:53.718Z,3.15
2023-05-12T10:30:53.179Z,3.14
2023-05-12T10:31:53.215Z,3.07
2023-05-12T10:32:53.279Z,2.96
2023-05-12T10:33:53.285Z,2.94
2023-05-12T10:34:53.312Z,2.96
2023-05-12T10:35:53.384Z,2.96
2023-05-12T10:36:53.421Z,2.94
2023-05-12T10:37:53.453Z,2.93
2023-05-12T10:38:53.531Z,2.94
2023-05-12T10:39:53.562Z,2.99
2023-05-12T10:40:53.602Z,2.99
2023-05-12T10:41:53.693Z,2.89
2023-05-12T10:42:53.749Z,2.92
2023-05-12T10:43:53.748Z,2.91
2023-05-12T10:44:53.827Z,2.98
2023-05-12T10:45:53.872Z,2.99
2023-05-12T10:46:53.926Z,2.98
2023-05-12T10:47:54.006Z,2.90
2023-05-12T10:48:54.030Z,2.96
2023-05-12T10:49:54.065Z,2.96
2023-05-12T10:50:54.118Z,2.77
2023-05-12T10:51:54.160Z,2.76
2023-05-12T10:52:54.202Z,2.70
2023-05-12T10:53:55.034Z,2.65
2023-05-12T10:54:54.286Z,2.76
2023-05-12T10:55:54.479Z,2.73
2023-05-12T10:56:54.534Z,2.71
2023-05-12T10:57:54.849Z,2.67
2023-05-12T10:58:54.824Z,2.79
2023-05-12T10:59:54.654Z,2.75
2023-05-12T11:00:55.562Z,2.67
2023-05-12T11:01:54.998Z,2.57
2023-05-12T11:02:59.272Z,2.65
2023-05-12T11:03:56.204Z,2.66
2023-05-12T11:04:54.820Z,2.66
2023-05-12T11:05:55.555Z,2.68
2023-05-12T11:06:54.781Z,2.72
2023-05-12T11:07:54.824Z,2.08
2023-05-12T11:08:55.146Z,1.53
2023-05-12T11:09:59.253Z,1.66
2023-05-12T11:10:55.723Z,1.61
2023-05-12T11:11:54.680Z,1.69
2023-05-12T11:12:54.591Z,1.75
2023-05-12T11:13:54.591Z,1.87
2023-05-12T11:14:54.650Z,3.08
2023-05-12T11:15:54.612Z,2.44
2023-05-12T11:16:54.591Z,2.46
2023-05-12T11:17:54.607Z,2.56
2023-05-12T11:18:54.625Z,2.74
2023-05-12T11:19:54.685Z,3.07
2023-05-12T11:20:54.540Z,3.14
2023-05-12T11:21:54.555Z,2.95
2023-05-12T11:22:54.604Z,3.10
2023-05-12T11:23:54.643Z,3.23
2023-05-12T11:24:55.186Z,3.35
2023-05-12T11:25:54.792Z,3.81
2023-05-12T11:26:54.791Z,4.29
2023-05-12T11:27:54.824Z,4.50
2023-05-12T11:28:54.878Z,4.58
2023-05-12T11:29:54.934Z,4.76
2023-05-12T11:30:55.818Z,5.14
2023-05-12T11:31:55.110Z,5.41
2023-05-12T11:32:55.124Z,5.64
2023-05-12T11:34:08.249Z,5.77
2023-05-12T11:34:56.201Z,5.78
2023-05-12T11:35:55.146Z,5.85
2023-05-12T11:36:55.134Z,6.02
2023-05-12T11:37:55.142Z,6.29
2023-05-12T11:38:55.130Z,6.77
2023-05-12T11:39:55.111Z,7.05
2023-05-12T11:40:55.096Z,7.05
2023-05-12T11:42:05.553Z,7.12
2023-05-12T11:42:56.180Z,7.14
2023-05-12T11:43:55.090Z,7.19
2023-05-12T11:44:55.078Z,7.27
2023-05-12T11:45:55.092Z,7.35
2023-05-12T11:46:55.059Z,7.70
2023-05-12T11:47:55.788Z,7.39
2023-05-12T11:48:55.056Z,7.34
2023-05-12T11:49:55.050Z,7.02
2023-05-12T11:50:55.039Z,6.62
2023-05-12T11:51:55.064Z,6.56
2023-05-12T11:52:55.110Z,6.34
2023-05-12T11:53:55.171Z,6.30
2023-05-12T11:54:55.242Z,5.96
2023-05-12T11:55:55.280Z,5.81
2023-05-12T11:56:55.320Z,5.52
2023-05-12T11:57:55.357Z,5.07
2023-05-12T11:58:55.385Z,5.17
2023-05-12T11:59:55.431Z,5.03
2023-05-12T12:00:55.486Z,4.55
2023-05-12T12:01:55.557Z,4.31
2023-05-12T12:02:55.660Z,4.00
2023-05-12T12:03:55.762Z,4.16
2023-05-12T12:04:55.667Z,3.92
2023-05-12T12:05:55.663Z,3.79
2023-05-12T12:06:55.717Z,3.78
2023-05-12T12:07:55.745Z,3.51
2023-05-12T12:08:55.801Z,3.27
2023-05-12T12:09:56.158Z,3.26
2023-05-12T12:10:55.904Z,3.09
2023-05-12T12:11:55.912Z,2.94
2023-05-12T12:12:55.950Z,3.01
2023-05-12T12:13:56.001Z,2.84
2023-05-12T12:14:56.055Z,2.88
2023-05-12T12:15:56.117Z,2.54
2023-05-12T12:16:56.129Z,2.35
2023-05-12T12:17:56.256Z,2.35
2023-05-12T12:18:56.268Z,2.25
2023-05-12T12:19:56.298Z,2.23
2023-05-12T12:20:56.337Z,2.18
2023-05-12T12:21:56.336Z,2.25
2023-05-12T12:22:56.414Z,2.19
2023-05-12T12:23:56.429Z,2.02
2023-05-12T12:24:56.478Z,2.02
2023-05-12T12:25:56.478Z,1.97
2023-05-12T12:26:56.508Z,1.91
2023-05-12T12:27:56.544Z,1.70
2023-05-12T12:28:56.567Z,1.79
2023-05-12T12:29:56.605Z,1.74
2023-05-12T12:30:56.637Z,1.63
2023-05-12T12:31:56.662Z,1.56
2023-05-12T12:32:56.741Z,1.65
2023-05-12T12:33:56.715Z,1.65
2023-05-12T12:34:56.748Z,1.59
2023-05-12T12:35:56.811Z,1.57
2023-05-12T12:36:56.854Z,1.55
2023-05-12T12:37:56.920Z,1.68
2023-05-12T12:38:56.978Z,1.71
2023-05-12T12:39:57.006Z,1.66
2023-05-12T12:40:57.057Z,1.66
2023-05-12T12:41:57.072Z,1.67
2023-05-12T12:42:57.123Z,1.69
2023-05-12T12:43:57.170Z,1.71
2023-05-12T12:44:57.218Z,1.79
2023-05-12T12:45:57.270Z,1.77
2023-05-12T12:46:57.366Z,1.90
2023-05-12T12:47:57.485Z,1.83
2023-05-12T12:48:57.395Z,2.00
2023-05-12T12:49:57.393Z,1.99
2023-05-12T12:50:57.433Z,1.87
2023-05-12T12:51:57.491Z,1.92
2023-05-12T12:52:57.545Z,2.02
2023-05-12T12:53:57.573Z,1.97
2023-05-12T12:54:57.659Z,1.97
2023-05-12T12:55:57.682Z,1.83
2023-05-12T12:56:57.744Z,1.84
2023-05-12T12:57:57.779Z,1.86
2023-05-12T12:58:57.819Z,1.89
2023-05-12T12:59:57.879Z,1.92
2023-05-12T13:00:57.939Z,1.89
2023-05-12T13:01:57.975Z,1.92
2023-05-12T13:02:58.132Z,1.72
2023-05-12T13:03:58.081Z,1.81
2023-05-12T13:04:58.105Z,1.75
2023-05-12T13:05:58.148Z,1.66
2023-05-12T13:06:58.173Z,1.84
2023-05-12T13:07:58.228Z,1.81
2023-05-12T13:08:58.262Z,1.78
2023-05-12T13:09:58.336Z,1.66
2023-05-12T13:10:58.351Z,1.62
2023-05-12T13:11:58.410Z,1.85
2023-05-12T13:12:58.448Z,1.62
2023-05-12T13:13:58.494Z,1.78
2023-05-12T13:14:58.541Z,1.71
2023-05-12T13:15:58.529Z,1.70
2023-05-12T13:16:58.576Z,1.61
2023-05-12T13:17:58.676Z,1.84
2023-05-12T13:18:58.721Z,1.91
2023-05-12T13:19:58.693Z,1.94
2023-05-12T13:20:58.748Z,1.79